Time;durP1;ratioP1;P1;durP2;ratioP2;P2;SDS_P1;SDS_P2;PMS_P1;PMS_P2;Temp;Humidity;BMP_temperature;BMP_pressure;BME280_temperature;BME280_humidity;BME280_pressure;Samples;Min_cycle;Max_cycle;Signal;HPM_P1;HPM_P2
2024/01/25 00:00:16;;;;;;;66.00;24.40;;;;;;;5.47;86.98;100272.67;108275;1278;21984;-58
2024/01/25 00:02:42;;;;;;;40.20;20.00;;;;;;;5.49;86.93;100270.61;108234;1287;21983;-59
2024/01/25 00:05:08;;;;;;;61.00;24.40;;;;;;;5.50;86.73;100264.88;108247;1287;22016;-58
2024/01/25 00:07:33;;;;;;;50.30;23.20;;;;;;;5.51;86.82;100262.45;108242;1287;22026;-58
2024/01/25 00:09:59;;;;;;;52.60;21.80;;;;;;;5.53;87.06;100259.30;108317;1276;22029;-58
2024/01/25 00:12:24;;;;;;;57.90;23.10;;;;;;;5.55;87.17;100253.58;108236;1276;21997;-58
2024/01/25 00:14:52;;;;;;;49.20;22.30;;;;;;;5.54;87.36;100253.75;108232;1284;22027;-58
2024/01/25 00:17:17;;;;;;;71.10;26.10;;;;;;;5.56;87.05;100252.19;108269;1281;21995;-58
2024/01/25 00:19:43;;;;;;;146.20;41.50;;;;;;;5.56;86.91;100255.67;107415;1280;1002607;-61
2024/01/25 00:22:09;;;;;;;101.80;32.10;;;;;;;5.53;86.92;100253.05;108161;1287;22160;-61
2024/01/25 00:24:34;;;;;;;192.20;49.10;;;;;;;5.55;86.86;100254.27;108269;1277;22033;-61
2024/01/25 00:27:00;;;;;;;156.60;43.90;;;;;;;5.56;86.88;100257.77;108247;1278;21994;-62
2024/01/25 00:29:26;;;;;;;157.80;46.50;;;;;;;5.56;86.60;100262.98;108241;1287;21990;-61
2024/01/25 00:31:51;;;;;;;133.40;41.90;;;;;;;5.55;86.72;100254.10;108106;1284;22044;-59
2024/01/25 00:34:17;;;;;;;133.80;41.60;;;;;;;5.55;86.63;100249.40;108077;1287;21989;-58
2024/01/25 00:36:43;;;;;;;90.00;33.30;;;;;;;5.57;86.63;100252.90;108100;1286;21994;-60
2024/01/25 00:39:09;;;;;;;164.80;55.70;;;;;;;5.56;86.57;100252.54;108112;1287;21992;-59
2024/01/25 00:41:34;;;;;;;160.60;52.20;;;;;;;5.57;86.85;100246.29;108107;1285;21992;-60
2024/01/25 00:44:01;;;;;;;108.70;37.90;;;;;;;5.58;86.74;100244.21;108128;1287;21994;-58
2024/01/25 00:46:26;;;;;;;80.70;32.40;;;;;;;5.58;86.65;100241.42;108118;1285;21995;-61
2024/01/25 00:48:52;;;;;;;72.80;30.50;;;;;;;5.56;86.76;100237.58;108128;1277;22171;-60
2024/01/25 00:51:21;;;;;;;58.00;26.50;;;;;;;5.57;86.50;100233.77;108081;1275;21977;-61
2024/01/25 00:53:47;;;;;;;57.10;26.40;;;;;;;5.61;86.74;100231.00;108556;1287;21987;-61
2024/01/25 00:56:13;;;;;;;49.60;22.60;;;;;;;5.62;86.60;100220.91;108853;1284;22007;-60
2024/01/25 00:58:39;;;;;;;73.80;29.40;;;;;;;5.63;86.64;100215.69;108286;1280;22000;-61
2024/01/25 01:01:05;;;;;;;75.20;32.20;;;;;;;5.65;86.49;100215.88;108321;1284;21998;-61
2024/01/25 01:03:31;;;;;;;73.60;33.30;;;;;;;5.69;86.15;100212.23;108233;1287;21993;-60
2024/01/25 01:05:57;;;;;;;53.80;26.30;;;;;;;5.70;86.38;100207.02;107576;1287;1002733;-61
2024/01/25 01:08:24;;;;;;;59.40;29.80;;;;;;;5.70;86.37;100208.23;107544;1287;1002428;-61
2024/01/25 01:10:49;;;;;;;65.30;32.10;;;;;;;5.70;86.27;100207.55;108221;1279;21993;-58
2024/01/25 01:13:15;;;;;;;60.60;28.60;;;;;;;5.72;86.05;100202.51;108086;1286;21988;-59
2024/01/25 01:15:40;;;;;;;47.10;24.40;;;;;;;5.73;86.27;100197.11;108078;1287;21986;-59
2024/01/25 01:18:06;;;;;;;53.20;25.50;;;;;;;5.74;86.69;100195.02;108130;1284;21986;-61
2024/01/25 01:20:31;;;;;;;48.10;24.30;;;;;;;5.78;86.68;100190.67;108248;1287;22028;-61
2024/01/25 01:22:57;;;;;;;46.50;22.10;;;;;;;5.82;86.47;100189.83;108192;1287;21999;-62
2024/01/25 01:25:23;;;;;;;48.60;23.40;;;;;;;5.83;86.56;100185.48;108182;1287;21998;-60
2024/01/25 01:27:48;;;;;;;39.00;20.50;;;;;;;5.82;86.72;100182.70;108147;1287;21990;-66
2024/01/25 01:30:14;;;;;;;41.60;21.80;;;;;;;5.81;87.11;100179.91;108185;1287;22000;-60
2024/01/25 01:32:39;;;;;;;47.20;20.80;;;;;;;5.79;87.05;100170.65;108228;1287;22039;-60
2024/01/25 01:35:06;;;;;;;47.50;21.90;;;;;;;5.74;87.97;100163.16;108153;1283;21992;-60
2024/01/25 01:37:31;;;;;;;40.40;20.80;;;;;;;5.76;87.75;100155.85;108130;1287;21992;-60
2024/01/25 01:39:58;;;;;;;46.40;23.00;;;;;;;5.78;87.50;100150.80;108161;1287;21991;-60
2024/01/25 01:42:24;;;;;;;37.60;20.10;;;;;;;5.78;87.86;100145.41;108154;1278;22000;-66
2024/01/25 01:44:50;;;;;;;42.40;20.30;;;;;;;5.79;87.52;100135.48;108135;1281;21991;-60
2024/01/25 01:47:15;;;;;;;38.60;19.70;;;;;;;5.76;88.03;100133.04;108218;1286;21988;-62
2024/01/25 01:49:41;;;;;;;38.80;20.50;;;;;;;5.74;88.12;100124.16;108120;1286;22023;-66
2024/01/25 01:52:07;;;;;;;41.80;20.30;;;;;;;5.76;88.06;100122.06;108138;1286;21993;-64
2024/01/25 01:54:32;;;;;;;38.90;18.70;;;;;;;5.74;88.09;100117.72;108068;1286;21996;-65
2024/01/25 01:56:58;;;;;;;41.70;19.00;;;;;;;5.74;88.23;100109.35;108234;1286;21991;-65
2024/01/25 01:59:25;;;;;;;37.10;18.40;;;;;;;5.75;88.24;100107.79;108098;1282;22000;-60
2024/01/25 02:01:52;;;;;;;37.00;18.90;;;;;;;5.73;88.59;100102.76;108122;1283;21994;-65
2024/01/25 02:04:17;;;;;;;43.10;20.00;;;;;;;5.76;88.42;100099.44;108133;1284;21984;-65
2024/01/25 02:06:43;;;;;;;38.40;19.60;;;;;;;5.80;88.09;100099.98;108125;1280;22026;-64
2024/01/25 02:09:09;;;;;;;37.00;19.20;;;;;;;5.79;88.05;100101.36;108129;1285;21980;-60
2024/01/25 02:11:35;;;;;;;40.20;19.20;;;;;;;5.77;88.51;100099.44;108288;1286;21995;-60
2024/01/25 02:14:00;;;;;;;36.30;18.30;;;;;;;5.76;88.67;100098.22;108247;1286;22458;-65
2024/01/25 02:16:26;;;;;;;36.50;18.90;;;;;;;5.75;88.65;100097.88;108186;1280;21992;-65
2024/01/25 02:18:54;;;;;;;39.90;19.40;;;;;;;5.76;88.61;100096.83;108204;1286;21992;-59
2024/01/25 02:21:19;;;;;;;40.30;19.00;;;;;;;5.81;88.69;100097.88;108241;1286;21980;-65
2024/01/25 02:23:45;;;;;;;36.60;17.50;;;;;;;5.86;88.44;100095.29;108093;1283;22048;-59
2024/01/25 02:26:10;;;;;;;35.70;17.60;;;;;;;5.89;88.46;100098.09;108187;1286;21986;-66
2024/01/25 02:28:36;;;;;;;39.80;18.60;;;;;;;5.91;88.65;100092.35;108172;1286;21987;-65
2024/01/25 02:31:02;;;;;;;37.90;19.20;;;;;;;5.93;88.70;100090.96;108218;1286;21983;-65
2024/01/25 02:33:28;;;;;;;36.30;18.00;;;;;;;5.94;88.45;100086.42;108269;1286;21993;-59
2024/01/25 02:35:53;;;;;;;40.50;19.30;;;;;;;5.96;88.58;100083.13;108345;1286;22092;-61
2024/01/25 02:38:19;;;;;;;41.30;19.10;;;;;;;5.97;88.93;100084.85;108295;1286;21997;-65
2024/01/25 02:40:44;;;;;;;38.10;17.60;;;;;;;5.98;88.74;100080.16;108227;1286;21993;-60
2024/01/25 02:43:10;;;;;;;38.90;18.00;;;;;;;5.99;88.65;100074.23;108336;1286;22062;-60
2024/01/25 02:45:35;;;;;;;38.10;17.80;;;;;;;6.00;88.55;100072.86;108313;1286;21987;-60
2024/01/25 02:48:03;;;;;;;38.50;18.90;;;;;;;6.01;88.29;100070.96;108279;1286;21989;-65
2024/01/25 02:50:29;;;;;;;38.40;18.70;;;;;;;6.02;88.68;100068.52;108228;1286;21999;-65
2024/01/25 02:52:54;;;;;;;36.50;17.00;;;;;;;6.03;88.66;100064.17;108265;1286;21994;-65
2024/01/25 02:55:20;;;;;;;38.10;18.30;;;;;;;6.03;88.46;100055.82;108133;1286;21976;-59
2024/01/25 02:57:46;;;;;;;36.80;19.00;;;;;;;6.01;88.68;100052.67;108106;1280;21989;-65
2024/01/25 03:00:12;;;;;;;38.30;19.00;;;;;;;6.01;89.08;100052.15;107370;1286;1003954;-66
2024/01/25 03:02:38;;;;;;;37.40;18.20;;;;;;;5.99;89.48;100045.50;108167;1286;21986;-60
2024/01/25 03:05:03;;;;;;;32.30;17.70;;;;;;;6.00;89.45;100052.65;108200;1286;21987;-59
2024/01/25 03:07:29;;;;;;;31.40;16.70;;;;;;;6.02;89.38;100051.63;108190;1286;21954;-66
2024/01/25 03:09:57;;;;;;;34.20;17.40;;;;;;;6.04;89.16;100045.02;108114;1286;21983;-60
2024/01/25 03:12:23;;;;;;;37.80;18.10;;;;;;;6.02;89.38;100037.17;108130;1286;21999;-66
2024/01/25 03:14:49;;;;;;;34.40;18.20;;;;;;;5.96;90.10;100024.79;108111;1286;21999;-60
2024/01/25 03:17:14;;;;;;;33.50;17.80;;;;;;;5.94;90.21;100026.00;108146;1286;22010;-65
2024/01/25 03:19:40;;;;;;;33.50;16.50;;;;;;;5.95;90.13;100028.79;108174;1286;21994;-59
2024/01/25 03:22:05;;;;;;;35.60;17.10;;;;;;;5.91;90.71;100029.14;108067;1286;21986;-60
2024/01/25 03:24:31;;;;;;;32.50;16.60;;;;;;;5.93;90.29;100041.49;108154;1286;21988;-60
2024/01/25 03:26:56;;;;;;;35.70;17.70;;;;;;;5.97;89.93;100037.14;108158;1283;22024;-62
2024/01/25 03:29:22;;;;;;;35.80;17.20;;;;;;;5.97;90.05;100027.90;108169;1286;22215;-66
2024/01/25 03:31:47;;;;;;;35.30;17.20;;;;;;;5.97;90.23;100028.26;108213;1286;21984;-66
2024/01/25 03:34:15;;;;;;;36.40;18.20;;;;;;;5.96;90.15;100026.86;107454;1286;1002222;-66
2024/01/25 03:36:41;;;;;;;38.70;18.90;;;;;;;5.95;89.98;100034.70;107399;1286;1002343;-60
2024/01/25 03:39:07;;;;;;;32.30;16.40;;;;;;;5.95;89.96;100038.20;107364;1286;1002433;-60
2024/01/25 03:41:33;;;;;;;32.70;16.60;;;;;;;5.96;89.96;100033.48;108126;1286;21989;-60
2024/01/25 03:44:00;;;;;;;32.90;15.90;;;;;;;5.97;90.07;100033.84;108238;1286;23638;-65
2024/01/25 03:46:26;;;;;;;35.40;17.10;;;;;;;5.98;90.22;100029.13;108280;1286;21986;-65
2024/01/25 03:48:51;;;;;;;38.40;18.20;;;;;;;5.97;89.85;100026.69;108317;1286;22035;-60
2024/01/25 03:51:17;;;;;;;33.90;15.80;;;;;;;5.98;89.77;100031.56;108226;1275;22006;-61
2024/01/25 03:53:42;;;;;;;39.60;19.20;;;;;;;5.98;90.02;100026.16;108272;1280;21994;-66
2024/01/25 03:56:12;;;;;;;31.60;16.60;;;;;;;5.96;90.32;100024.09;108144;1286;21977;-59
2024/01/25 03:58:38;;;;;;;38.10;16.50;;;;;;;6.01;89.97;100022.54;108256;1286;22028;-65
2024/01/25 04:01:04;;;;;;;35.80;17.60;;;;;;;6.02;90.01;100020.46;108230;1284;22033;-59
2024/01/25 04:03:29;;;;;;;31.60;16.30;;;;;;;6.02;89.84;100022.38;108305;1286;22015;-65
2024/01/25 04:05:55;;;;;;;35.10;17.00;;;;;;;6.02;89.73;100028.64;108325;1286;21981;-60
2024/01/25 04:08:21;;;;;;;37.20;18.60;;;;;;;6.02;89.94;100025.16;108242;1286;22002;-65
2024/01/25 04:10:46;;;;;;;35.40;17.70;;;;;;;6.02;89.80;100023.23;108194;1286;22003;-61
2024/01/25 04:13:12;;;;;;;36.90;18.00;;;;;;;6.02;89.73;100016.80;108236;1281;22005;-59
2024/01/25 04:15:37;;;;;;;37.30;18.10;;;;;;;6.04;89.62;100010.54;108264;1280;21977;-60
2024/01/25 04:18:03;;;;;;;35.80;17.90;;;;;;;6.03;89.74;100014.36;108201;1286;22003;-65
2024/01/25 04:20:29;;;;;;;29.40;16.20;;;;;;;6.04;89.74;100017.33;108277;1277;21991;-60
2024/01/25 04:22:55;;;;;;;34.60;17.30;;;;;;;6.05;89.73;100023.94;108286;1277;22033;-65
2024/01/25 04:25:21;;;;;;;36.80;17.90;;;;;;;6.05;89.70;100023.42;108168;1284;21993;-59
2024/01/25 04:27:47;;;;;;;34.70;17.50;;;;;;;6.05;89.68;100022.20;108311;1286;21980;-60
2024/01/25 04:30:13;;;;;;;36.80;18.10;;;;;;;6.06;89.70;100022.73;108162;1276;21986;-60
2024/01/25 04:32:40;;;;;;;34.20;17.60;;;;;;;6.08;89.80;100019.92;108239;1285;22028;-61
2024/01/25 04:35:06;;;;;;;33.40;17.40;;;;;;;6.05;89.91;100017.50;108077;1286;22001;-64
2024/01/25 04:37:32;;;;;;;31.50;16.80;;;;;;;6.05;90.01;100018.72;108150;1286;21992;-65
2024/01/25 04:39:57;;;;;;;33.90;17.40;;;;;;;6.05;90.17;100018.72;108120;1286;22027;-65
2024/01/25 04:42:23;;;;;;;35.60;17.80;;;;;;;6.06;90.20;100014.89;108112;1286;22031;-65
2024/01/25 04:44:48;;;;;;;32.00;16.70;;;;;;;6.09;90.09;100015.94;108261;1274;21989;-65
2024/01/25 04:47:14;;;;;;;30.60;16.70;;;;;;;6.13;90.13;100016.81;108294;1286;21994;-59
2024/01/25 04:49:40;;;;;;;34.40;16.70;;;;;;;6.15;90.00;100011.08;108216;1277;21992;-60
2024/01/25 04:52:06;;;;;;;31.40;15.50;;;;;;;6.16;90.31;100013.67;108075;1284;21987;-59
2024/01/25 04:54:31;;;;;;;30.60;16.80;;;;;;;6.19;90.38;100014.18;108120;1286;21988;-59
2024/01/25 04:56:58;;;;;;;31.80;16.60;;;;;;;6.24;90.14;100015.75;108168;1283;21989;-60
2024/01/25 04:59:23;;;;;;;28.50;14.60;;;;;;;6.28;90.11;100012.63;108105;1283;23461;-60
2024/01/25 05:01:49;;;;;;;28.80;15.20;;;;;;;6.31;90.15;100016.27;108114;1286;21986;-66
2024/01/25 05:04:16;;;;;;;30.50;14.90;;;;;;;6.34;89.94;100010.54;108086;1281;21987;-66
2024/01/25 05:06:41;;;;;;;30.10;15.90;;;;;;;6.36;89.74;100000.25;108208;1286;21997;-65
2024/01/25 05:09:08;;;;;;;31.80;17.00;;;;;;;6.36;89.74;99996.05;108164;1286;22023;-59
2024/01/25 05:11:40;;;;;;;33.50;16.50;;;;;;;6.38;89.67;99996.06;108118;1286;22000;-59
2024/01/25 05:14:06;;;;;;;30.00;15.90;;;;;;;6.39;89.71;99990.32;108165;1286;22087;-59
2024/01/25 05:16:32;;;;;;;34.10;16.60;;;;;;;6.40;89.70;99992.92;108074;1286;22001;-59
2024/01/25 05:18:58;;;;;;;35.50;15.70;;;;;;;6.41;89.58;99990.13;108116;1278;21994;-58
2024/01/25 05:21:23;;;;;;;31.30;15.40;;;;;;;6.44;89.58;99986.63;108178;1286;21987;-58
2024/01/25 05:23:49;;;;;;;31.80;16.50;;;;;;;6.44;89.45;99989.60;108254;1286;23609;-58
2024/01/25 05:26:15;;;;;;;37.90;17.20;;;;;;;6.43;89.52;99987.52;107370;1283;1002425;-64
2024/01/25 05:28:41;;;;;;;30.90;16.00;;;;;;;6.44;89.60;99989.25;108122;1286;21991;-57
2024/01/25 05:31:12;;;;;;;31.20;15.70;;;;;;;6.43;89.30;99989.59;108149;1286;21985;-59
2024/01/25 05:33:41;;;;;;;28.80;15.00;;;;;;;6.44;88.95;99991.68;107512;1277;1002542;-60
2024/01/25 05:36:07;;;;;;;31.10;15.80;;;;;;;6.44;89.15;99989.07;108112;1283;22459;-60
2024/01/25 05:38:33;;;;;;;28.10;14.60;;;;;;;6.45;89.29;99988.20;108149;1275;22029;-59
2024/01/25 05:40:58;;;;;;;30.90;15.70;;;;;;;6.46;89.19;99989.25;108120;1286;21989;-59
2024/01/25 05:43:24;;;;;;;31.80;15.20;;;;;;;6.45;89.29;99988.02;108088;1274;21992;-63
2024/01/25 05:45:50;;;;;;;32.60;16.10;;;;;;;6.43;89.63;99988.20;108206;1288;22464;-64
2024/01/25 05:48:16;;;;;;;31.40;15.80;;;;;;;6.46;89.61;99988.72;108090;1278;22001;-63
2024/01/25 05:50:41;;;;;;;32.10;15.20;;;;;;;6.48;89.75;99990.80;108091;1288;22047;-63
2024/01/25 05:53:07;;;;;;;28.60;14.70;;;;;;;6.51;89.74;99990.28;108104;1288;21994;-62
2024/01/25 05:55:32;;;;;;;33.90;16.80;;;;;;;6.54;89.87;99991.50;108093;1277;21992;-58
2024/01/25 05:57:58;;;;;;;29.60;15.50;;;;;;;6.54;90.26;99992.02;108103;1284;21990;-58
2024/01/25 06:00:23;;;;;;;31.90;16.80;;;;;;;6.57;90.27;99994.11;108106;1280;21993;-63
2024/01/25 06:02:49;;;;;;;27.70;14.80;;;;;;;6.59;90.18;99997.95;108083;1277;21991;-63
2024/01/25 06:05:15;;;;;;;27.70;14.60;;;;;;;6.63;90.12;99999.15;108076;1277;21991;-59
2024/01/25 06:07:40;;;;;;;31.40;15.50;;;;;;;6.63;90.16;99999.33;108059;1287;22196;-58
2024/01/25 06:10:07;;;;;;;28.60;15.60;;;;;;;6.58;90.17;100001.44;108089;1288;22031;-58
2024/01/25 06:12:33;;;;;;;29.20;14.80;;;;;;;6.59;89.95;99999.70;108139;1288;22000;-64
2024/01/25 06:14:59;;;;;;;28.30;15.10;;;;;;;6.56;90.27;100000.23;108134;1288;22381;-60
2024/01/25 06:17:24;;;;;;;28.30;15.40;;;;;;;6.55;90.53;100000.58;108141;1281;22103;-60
2024/01/25 06:19:53;;;;;;;28.60;14.30;;;;;;;6.58;90.48;99998.64;108121;1279;22054;-59
2024/01/25 06:22:18;;;;;;;28.70;15.20;;;;;;;6.63;90.77;100000.37;108143;1280;22027;-59
2024/01/25 06:24:44;;;;;;;30.20;15.50;;;;;;;6.69;90.73;99998.96;108112;1284;21997;-64
2024/01/25 06:27:10;;;;;;;30.90;14.70;;;;;;;6.73;90.87;99995.64;108095;1288;21992;-64
2024/01/25 06:29:35;;;;;;;27.70;15.00;;;;;;;6.80;90.71;99989.34;107416;1287;1002305;-64
2024/01/25 06:32:01;;;;;;;26.30;13.70;;;;;;;6.87;90.57;99987.74;108135;1287;21987;-64
2024/01/25 06:34:27;;;;;;;29.60;15.40;;;;;;;6.92;90.60;99984.59;108149;1283;21984;-64
2024/01/25 06:36:53;;;;;;;32.70;15.40;;;;;;;7.00;90.32;99982.64;107971;1288;22206;-59
2024/01/25 06:39:18;;;;;;;24.50;13.20;;;;;;;7.05;90.18;99978.80;108042;1287;22000;-63
2024/01/25 06:41:45;;;;;;;28.20;14.30;;;;;;;7.07;90.29;99978.42;108007;1276;22007;-60
2024/01/25 06:44:11;;;;;;;28.20;14.80;;;;;;;7.07;90.34;99978.95;108186;1287;22096;-64
2024/01/25 06:46:37;;;;;;;27.10;14.50;;;;;;;7.13;90.37;99978.39;108022;1288;21995;-64
2024/01/25 06:49:02;;;;;;;30.80;14.30;;;;;;;7.17;89.91;99979.25;107364;1288;1002465;-60
2024/01/25 06:51:28;;;;;;;26.50;13.10;;;;;;;7.25;90.08;99979.39;108094;1284;21986;-64
2024/01/25 06:53:54;;;;;;;27.30;14.60;;;;;;;7.33;89.88;99980.92;108122;1286;22009;-64
2024/01/25 06:56:20;;;;;;;25.40;12.90;;;;;;;7.40;89.51;99981.76;108060;1288;22001;-60
2024/01/25 06:58:45;;;;;;;25.40;14.20;;;;;;;7.44;89.70;99982.61;108073;1288;21995;-60
2024/01/25 07:01:11;;;;;;;26.70;13.00;;;;;;;7.49;90.07;99980.65;108051;1287;21988;-60
2024/01/25 07:03:37;;;;;;;25.70;13.30;;;;;;;7.59;90.08;99980.94;108099;1288;21990;-64
2024/01/25 07:06:04;;;;;;;26.10;12.70;;;;;;;7.67;90.16;99976.89;108060;1288;21950;-61
2024/01/25 07:08:29;;;;;;;27.40;13.10;;;;;;;7.78;90.05;99978.55;108172;1288;22001;-64
2024/01/25 07:10:56;;;;;;;20.80;11.50;;;;;;;7.88;89.73;99981.97;108130;1286;22455;-64
2024/01/25 07:13:21;;;;;;;22.50;12.20;;;;;;;7.94;89.52;99981.92;108138;1283;22001;-63
2024/01/25 07:15:47;;;;;;;22.00;11.20;;;;;;;8.01;89.77;99979.41;108122;1277;22023;-60
2024/01/25 07:18:13;;;;;;;21.80;11.20;;;;;;;8.12;90.06;99975.48;108085;1275;22011;-62
2024/01/25 07:20:38;;;;;;;19.00;10.40;;;;;;;8.26;90.55;99975.19;108124;1288;21994;-61
2024/01/25 07:23:04;;;;;;;21.90;9.30;;;;;;;8.34;90.48;99974.23;108055;1284;21988;-61
2024/01/25 07:25:29;;;;;;;20.70;10.10;;;;;;;8.41;90.07;99976.44;108124;1288;21988;-63
2024/01/25 07:27:55;;;;;;;19.00;10.30;;;;;;;8.42;89.35;99977.47;108119;1288;22475;-61
2024/01/25 07:30:21;;;;;;;21.30;11.80;;;;;;;8.41;88.63;99981.51;108135;1288;22002;-62
2024/01/25 07:32:47;;;;;;;19.90;10.80;;;;;;;8.40;88.31;99978.19;108077;1288;22056;-62
2024/01/25 07:35:13;;;;;;;20.40;10.60;;;;;;;8.38;88.42;99979.27;108107;1282;21990;-63
2024/01/25 07:37:38;;;;;;;19.40;11.80;;;;;;;8.34;88.59;99980.00;107412;1288;1002798;-60
2024/01/25 07:40:06;;;;;;;21.40;12.50;;;;;;;8.24;88.90;99978.88;108108;1288;22637;-62
2024/01/25 07:42:32;;;;;;;21.00;11.30;;;;;;;8.26;89.12;99970.99;108177;1288;21986;-61
2024/01/25 07:44:58;;;;;;;21.60;11.30;;;;;;;8.27;89.07;99975.88;107942;1287;175794;-63
2024/01/25 07:47:26;;;;;;;26.40;12.90;;;;;;;8.26;89.29;99976.76;108174;1287;21993;-65
2024/01/25 07:49:52;;;;;;;19.20;11.00;;;;;;;8.26;89.94;99973.96;107389;1275;1002904;-64
2024/01/25 07:52:17;;;;;;;20.20;10.70;;;;;;;8.22;90.75;99972.59;108144;1287;21994;-65
2024/01/25 07:54:44;;;;;;;19.50;10.00;;;;;;;8.20;91.45;99972.79;108111;1280;21992;-60
2024/01/25 07:57:10;;;;;;;20.70;11.10;;;;;;;8.25;91.73;99977.46;108110;1281;21986;-61
2024/01/25 07:59:35;;;;;;;22.50;10.30;;;;;;;8.26;92.46;99981.66;108116;1287;22051;-60
2024/01/25 08:02:01;;;;;;;20.30;10.00;;;;;;;8.29;92.74;99980.39;108093;1284;22040;-61
2024/01/25 08:04:27;;;;;;;19.90;10.20;;;;;;;8.33;92.88;99981.92;108120;1281;21999;-64
2024/01/25 08:06:52;;;;;;;18.80;10.40;;;;;;;8.38;93.04;99980.48;108124;1287;21996;-67
2024/01/25 08:09:18;;;;;;;20.20;10.30;;;;;;;8.40;93.13;99980.48;108113;1277;21977;-66
2024/01/25 08:11:44;;;;;;;18.40;10.00;;;;;;;8.33;94.28;99978.45;108099;1287;22003;-62
2024/01/25 08:14:11;;;;;;;18.40;9.40;;;;;;;8.28;95.22;99978.13;108161;1287;22029;-66
2024/01/25 08:16:37;;;;;;;18.20;8.80;;;;;;;8.38;94.76;99977.17;108173;1287;21994;-61
2024/01/25 08:19:03;;;;;;;20.10;9.90;;;;;;;8.38;95.18;99977.70;108162;1276;22300;-65
2024/01/25 08:21:28;;;;;;;17.20;9.00;;;;;;;8.46;95.06;99981.29;108155;1287;21989;-61
2024/01/25 08:23:54;;;;;;;19.20;9.20;;;;;;;8.52;94.94;99977.59;108158;1287;21997;-66
2024/01/25 08:26:20;;;;;;;17.50;9.10;;;;;;;8.59;94.97;99973.48;108052;1287;21988;-60
2024/01/25 08:28:46;;;;;;;15.10;8.00;;;;;;;8.64;95.76;99973.26;108159;1287;21985;-66
2024/01/25 08:31:11;;;;;;;79.10;39.70;;;;;;;8.68;96.59;99967.45;108103;1287;21996;-65
2024/01/25 08:33:41;;;;;;;35.20;20.80;;;;;;;8.74;97.69;99967.91;108097;1287;21990;-66
2024/01/25 08:36:07;;;;;;;44.90;28.50;;;;;;;8.91;97.17;99964.73;108381;1287;21996;-61
2024/01/25 08:38:33;;;;;;;26.00;15.60;;;;;;;8.96;96.85;99963.63;108172;1287;21988;-59
2024/01/25 08:40:58;;;;;;;54.10;31.60;;;;;;;8.97;96.02;99969.04;108183;1287;21996;-59
2024/01/25 08:43:24;;;;;;;19.60;12.20;;;;;;;8.94;95.48;99972.91;108100;1281;21985;-59
2024/01/25 08:45:49;;;;;;;17.70;8.50;;;;;;;8.91;95.03;99974.54;108201;1286;21998;-66
2024/01/25 08:48:15;;;;;;;13.60;8.10;;;;;;;8.82;95.52;99971.14;108111;1283;21987;-59
2024/01/25 08:50:41;;;;;;;15.70;8.40;;;;;;;8.81;95.51;99973.25;108124;1286;22170;-59
2024/01/25 08:53:06;;;;;;;21.40;9.20;;;;;;;8.74;96.05;99969.83;108116;1286;21989;-65
2024/01/25 08:55:33;;;;;;;37.40;21.90;;;;;;;8.71;96.60;99969.86;108081;1273;22028;-59
2024/01/25 08:57:59;;;;;;;52.70;30.30;;;;;;;8.72;97.60;99966.17;108195;1273;22033;-64
2024/01/25 09:00:24;;;;;;;24.70;15.70;;;;;;;8.77;98.21;99969.09;108241;1286;22023;-65
2024/01/25 09:02:50;;;;;;;19.40;11.00;;;;;;;8.81;98.10;99967.65;108264;1286;21994;-66
2024/01/25 09:05:16;;;;;;;19.40;10.10;;;;;;;8.83;97.65;99963.09;108275;1283;21983;-60
2024/01/25 09:07:42;;;;;;;16.50;9.80;;;;;;;8.78;98.10;99958.06;108130;1286;21995;-65
2024/01/25 09:10:09;;;;;;;17.40;8.90;;;;;;;8.87;97.54;99956.91;108171;1286;21997;-60
2024/01/25 09:12:35;;;;;;;12.60;7.80;;;;;;;8.93;97.58;99952.80;108157;1286;21990;-61
2024/01/25 09:15:01;;;;;;;13.50;7.70;;;;;;;8.89;98.96;99949.52;108298;1284;21992;-59
2024/01/25 09:17:27;;;;;;;13.40;7.40;;;;;;;8.96;99.47;99951.20;108227;1286;22009;-59
2024/01/25 09:19:53;;;;;;;13.80;7.40;;;;;;;9.04;99.28;99947.43;108215;1286;22116;-64
2024/01/25 09:22:22;;;;;;;13.10;7.10;;;;;;;9.16;98.56;99944.13;108129;1284;23182;-60
2024/01/25 09:24:48;;;;;;;14.80;7.40;;;;;;;9.28;98.40;99936.08;108071;1286;21994;-66
2024/01/25 09:27:14;;;;;;;13.10;7.30;;;;;;;9.36;98.81;99934.91;108116;1286;23515;-65
2024/01/25 09:29:42;;;;;;;12.80;7.20;;;;;;;9.51;99.52;99931.38;108085;1286;21999;-65
2024/01/25 09:32:08;;;;;;;15.50;9.20;;;;;;;9.72;99.65;99929.11;108345;1286;23598;-60
2024/01/25 09:34:35;;;;;;;24.60;12.40;;;;;;;9.89;99.54;99920.95;108070;1286;21989;-64
2024/01/25 09:37:02;;;;;;;24.20;11.90;;;;;;;10.03;99.42;99914.75;108315;1286;21990;-64
2024/01/25 09:39:29;;;;;;;30.20;14.50;;;;;;;10.17;98.90;99915.21;108227;1286;23741;-59
2024/01/25 09:41:54;;;;;;;11.90;6.40;;;;;;;10.28;98.71;99910.98;108201;1286;21992;-64
2024/01/25 09:44:20;;;;;;;8.30;4.30;;;;;;;10.35;98.44;99913.84;108122;1286;21999;-59
2024/01/25 09:46:46;;;;;;;5.40;2.80;;;;;;;10.43;98.09;99903.89;108158;1286;21994;-60
2024/01/25 09:49:12;;;;;;;5.40;3.00;;;;;;;10.44;98.37;99897.55;108254;1278;21987;-59
2024/01/25 09:51:39;;;;;;;5.60;2.50;;;;;;;10.43;98.85;99893.72;108183;1279;22065;-64
2024/01/25 09:54:05;;;;;;;5.90;2.40;;;;;;;10.48;99.15;99892.05;108133;1286;21994;-64
2024/01/25 09:56:32;;;;;;;8.30;3.00;;;;;;;10.44;99.19;99893.00;108086;1286;21990;-64
2024/01/25 09:58:57;;;;;;;7.80;2.50;;;;;;;10.52;98.65;99893.03;108094;1286;21987;-64
2024/01/25 10:01:23;;;;;;;4.50;1.80;;;;;;;10.38;97.90;99889.77;107912;1286;21997;-63
2024/01/25 10:03:49;;;;;;;5.70;2.00;;;;;;;10.45;97.15;99887.02;108138;1286;22449;-59
2024/01/25 10:06:15;;;;;;;6.00;2.00;;;;;;;10.47;96.85;99884.35;108204;1286;21995;-61
2024/01/25 10:08:41;;;;;;;6.00;2.10;;;;;;;10.39;97.02;99880.63;108294;1283;21977;-65
2024/01/25 10:11:14;;;;;;;5.10;2.30;;;;;;;10.46;97.51;99886.10;108103;1283;21986;-65
2024/01/25 10:13:44;;;;;;;11.10;5.00;;;;;;;10.56;97.29;99890.67;108275;1284;21982;-61
2024/01/25 10:16:14;;;;;;;18.50;8.80;;;;;;;10.60;97.28;99892.52;108103;1286;22854;-60
2024/01/25 10:18:43;;;;;;;17.60;9.10;;;;;;;10.65;97.32;99891.52;108104;1286;21977;-60
2024/01/25 10:21:13;;;;;;;16.70;8.30;;;;;;;10.72;97.55;99887.52;105130;1283;1003170;-66
2024/01/25 10:23:39;;;;;;;28.40;11.00;;;;;;;10.78;97.57;99884.60;108074;1286;22024;-60
2024/01/25 10:26:05;;;;;;;37.10;14.60;;;;;;;10.83;97.23;99880.96;108098;1286;21992;-60
2024/01/25 10:28:31;;;;;;;54.40;22.80;;;;;;;10.82;96.85;99877.84;108186;1286;22022;-65
2024/01/25 10:31:01;;;;;;;32.60;15.20;;;;;;;10.82;96.51;99874.86;105144;1283;1003016;-66
2024/01/25 10:33:27;;;;;;;21.10;10.60;;;;;;;10.82;96.38;99876.42;108211;1286;22049;-65
2024/01/25 10:36:02;;;;;;;13.80;6.90;;;;;;;10.84;96.40;99874.30;108112;1286;21990;-65
2024/01/25 10:38:32;;;;;;;99.80;53.80;;;;;;;10.84;96.37;99873.06;108244;1286;21992;-64
2024/01/25 10:41:02;;;;;;;22.40;14.00;;;;;;;10.86;96.24;99869.15;108155;1286;21994;-65
2024/01/25 10:43:30;;;;;;;12.20;7.80;;;;;;;10.87;96.20;99870.18;108104;1286;22471;-60
2024/01/25 10:45:58;;;;;;;7.80;4.70;;;;;;;10.87;95.93;99868.25;108089;1288;22744;-60
2024/01/25 10:48:27;;;;;;;6.70;3.70;;;;;;;10.87;95.48;99868.62;108089;1288;22036;-64
2024/01/25 10:50:56;;;;;;;6.10;3.20;;;;;;;10.89;95.42;99872.79;108078;1288;22033;-61
2024/01/25 10:53:23;;;;;;;4.90;2.90;;;;;;;10.89;95.46;99874.54;108131;1288;21995;-60
2024/01/25 10:55:48;;;;;;;5.90;3.40;;;;;;;10.93;95.86;99875.16;108114;1283;21992;-64
2024/01/25 10:58:14;;;;;;;7.50;3.10;;;;;;;10.98;95.78;99871.89;107789;1288;21992;-64
2024/01/25 11:00:40;;;;;;;5.50;3.40;;;;;;;11.06;96.00;99870.30;107774;1288;23627;-60
2024/01/25 11:03:06;;;;;;;6.20;2.80;;;;;;;11.16;96.46;99870.96;108123;1288;21992;-60
2024/01/25 11:05:31;;;;;;;5.80;3.20;;;;;;;11.21;95.94;99869.80;108132;1288;21988;-65
2024/01/25 11:07:58;;;;;;;7.40;2.70;;;;;;;11.28;95.19;99866.28;108038;1284;21995;-64